sensor_id;sensor_type;location;lat;lon;timestamp;P1;durP1;ratioP1;P2;durP2;ratioP2
66421;SDS011;53228;51.380;0.098;2024-02-26T00:01:35;3.88;;;2.83;;
66421;SDS011;53228;51.380;0.098;2024-02-26T00:04:03;5.20;;;2.60;;
66421;SDS011;53228;51.380;0.098;2024-02-26T00:06:31;3.38;;;2.70;;
66421;SDS011;53228;51.380;0.098;2024-02-26T00:08:59;6.15;;;2.70;;
66421;SDS011;53228;51.380;0.098;2024-02-26T00:11:29;4.43;;;3.20;;
66421;SDS011;53228;51.380;0.098;2024-02-26T00:13:57;3.95;;;2.58;;
66421;SDS011;53228;51.380;0.098;2024-02-26T00:16:25;10.18;;;3.33;;
66421;SDS011;53228;51.380;0.098;2024-02-26T00:18:53;4.47;;;2.90;;
66421;SDS011;53228;51.380;0.098;2024-02-26T00:21:21;6.55;;;2.88;;
66421;SDS011;53228;51.380;0.098;2024-02-26T00:23:49;5.28;;;3.15;;
66421;SDS011;53228;51.380;0.098;2024-02-26T00:26:18;5.10;;;3.33;;
66421;SDS011;53228;51.380;0.098;2024-02-26T00:28:46;9.85;;;3.20;;
66421;SDS011;53228;51.380;0.098;2024-02-26T00:31:14;4.65;;;2.47;;
66421;SDS011;53228;51.380;0.098;2024-02-26T00:33:42;4.30;;;3.03;;
66421;SDS011;53228;51.380;0.098;2024-02-26T00:36:10;7.05;;;3.17;;
66421;SDS011;53228;51.380;0.098;2024-02-26T00:38:38;6.20;;;3.05;;
66421;SDS011;53228;51.380;0.098;2024-02-26T00:41:07;7.70;;;2.53;;
66421;SDS011;53228;51.380;0.098;2024-02-26T00:43:35;5.40;;;2.72;;
66421;SDS011;53228;51.380;0.098;2024-02-26T00:46:06;3.65;;;2.20;;
66421;SDS011;53228;51.380;0.098;2024-02-26T00:48:34;3.58;;;2.70;;
66421;SDS011;53228;51.380;0.098;2024-02-26T00:51:02;3.22;;;2.33;;
66421;SDS011;53228;51.380;0.098;2024-02-26T00:53:32;6.40;;;2.40;;
66421;SDS011;53228;51.380;0.098;2024-02-26T00:56:00;5.32;;;2.75;;
66421;SDS011;53228;51.380;0.098;2024-02-26T00:58:28;5.78;;;2.42;;
66421;SDS011;53228;51.380;0.098;2024-02-26T01:00:56;7.50;;;2.95;;
66421;SDS011;53228;51.380;0.098;2024-02-26T01:03:24;5.90;;;2.60;;
66421;SDS011;53228;51.380;0.098;2024-02-26T01:05:52;5.53;;;2.88;;
66421;SDS011;53228;51.380;0.098;2024-02-26T01:08:24;2.90;;;2.25;;
66421;SDS011;53228;51.380;0.098;2024-02-26T01:10:52;4.43;;;2.22;;
66421;SDS011;53228;51.380;0.098;2024-02-26T01:13:20;2.88;;;1.80;;
66421;SDS011;53228;51.380;0.098;2024-02-26T01:15:48;4.20;;;2.05;;
66421;SDS011;53228;51.380;0.098;2024-02-26T01:18:16;7.13;;;2.70;;
66421;SDS011;53228;51.380;0.098;2024-02-26T01:20:44;3.50;;;2.50;;
66421;SDS011;53228;51.380;0.098;2024-02-26T01:23:12;7.07;;;2.78;;
66421;SDS011;53228;51.380;0.098;2024-02-26T01:25:40;4.93;;;2.15;;
66421;SDS011;53228;51.380;0.098;2024-02-26T01:28:10;4.40;;;2.42;;
66421;SDS011;53228;51.380;0.098;2024-02-26T01:30:37;5.88;;;2.33;;
66421;SDS011;53228;51.380;0.098;2024-02-26T01:33:06;3.03;;;2.42;;
66421;SDS011;53228;51.380;0.098;2024-02-26T01:35:34;7.05;;;2.55;;
66421;SDS011;53228;51.380;0.098;2024-02-26T01:38:03;5.53;;;2.30;;
66421;SDS011;53228;51.380;0.098;2024-02-26T01:40:30;2.83;;;2.15;;
66421;SDS011;53228;51.380;0.098;2024-02-26T01:42:59;2.47;;;1.33;;
66421;SDS011;53228;51.380;0.098;2024-02-26T01:45:27;4.32;;;1.60;;
66421;SDS011;53228;51.380;0.098;2024-02-26T01:47:55;4.60;;;1.70;;
66421;SDS011;53228;51.380;0.098;2024-02-26T01:50:25;2.72;;;1.80;;
66421;SDS011;53228;51.380;0.098;2024-02-26T01:52:53;2.85;;;1.30;;
66421;SDS011;53228;51.380;0.098;2024-02-26T01:55:22;1.52;;;1.05;;
66421;SDS011;53228;51.380;0.098;2024-02-26T01:57:51;2.75;;;1.30;;
66421;SDS011;53228;51.380;0.098;2024-02-26T02:00:20;1.55;;;0.57;;
66421;SDS011;53228;51.380;0.098;2024-02-26T02:02:49;2.28;;;1.20;;
66421;SDS011;53228;51.380;0.098;2024-02-26T02:05:17;1.90;;;0.50;;
66421;SDS011;53228;51.380;0.098;2024-02-26T02:07:46;1.80;;;1.45;;
66421;SDS011;53228;51.380;0.098;2024-02-26T02:10:15;1.85;;;1.00;;
66421;SDS011;53228;51.380;0.098;2024-02-26T02:12:45;1.20;;;1.00;;
66421;SDS011;53228;51.380;0.098;2024-02-26T02:15:13;6.72;;;1.30;;
66421;SDS011;53228;51.380;0.098;2024-02-26T02:17:41;3.95;;;1.20;;
66421;SDS011;53228;51.380;0.098;2024-02-26T02:20:18;2.75;;;1.10;;
66421;SDS011;53228;51.380;0.098;2024-02-26T02:22:46;1.75;;;0.80;;
66421;SDS011;53228;51.380;0.098;2024-02-26T02:25:14;3.30;;;1.33;;
66421;SDS011;53228;51.380;0.098;2024-02-26T02:27:42;4.40;;;1.00;;
66421;SDS011;53228;51.380;0.098;2024-02-26T02:30:10;3.00;;;1.02;;
66421;SDS011;53228;51.380;0.098;2024-02-26T02:32:39;1.63;;;1.00;;
66421;SDS011;53228;51.380;0.098;2024-02-26T02:35:10;2.28;;;1.38;;
66421;SDS011;53228;51.380;0.098;2024-02-26T02:37:38;4.47;;;1.13;;
66421;SDS011;53228;51.380;0.098;2024-02-26T02:40:07;1.02;;;0.85;;
66421;SDS011;53228;51.380;0.098;2024-02-26T02:42:35;1.20;;;0.60;;
66421;SDS011;53228;51.380;0.098;2024-02-26T02:45:03;2.80;;;0.88;;
66421;SDS011;53228;51.380;0.098;2024-02-26T02:47:31;4.03;;;1.10;;
66421;SDS011;53228;51.380;0.098;2024-02-26T02:49:59;3.17;;;0.90;;
66421;SDS011;53228;51.380;0.098;2024-02-26T02:52:27;2.22;;;1.05;;
66421;SDS011;53228;51.380;0.098;2024-02-26T02:54:55;3.42;;;1.00;;
66421;SDS011;53228;51.380;0.098;2024-02-26T02:57:22;3.58;;;0.95;;
66421;SDS011;53228;51.380;0.098;2024-02-26T02:59:50;3.25;;;1.50;;
66421;SDS011;53228;51.380;0.098;2024-02-26T03:02:18;3.72;;;1.10;;
66421;SDS011;53228;51.380;0.098;2024-02-26T03:04:46;1.55;;;0.98;;
66421;SDS011;53228;51.380;0.098;2024-02-26T03:07:14;3.20;;;1.23;;
66421;SDS011;53228;51.380;0.098;2024-02-26T03:09:42;9.20;;;1.05;;
66421;SDS011;53228;51.380;0.098;2024-02-26T03:12:10;4.30;;;1.10;;
66421;SDS011;53228;51.380;0.098;2024-02-26T03:14:38;4.90;;;1.73;;
66421;SDS011;53228;51.380;0.098;2024-02-26T03:17:06;4.28;;;1.58;;
66421;SDS011;53228;51.380;0.098;2024-02-26T03:19:34;1.75;;;1.45;;
66421;SDS011;53228;51.380;0.098;2024-02-26T03:22:01;4.32;;;2.15;;
66421;SDS011;53228;51.380;0.098;2024-02-26T03:24:29;2.45;;;1.65;;
66421;SDS011;53228;51.380;0.098;2024-02-26T03:26:57;4.05;;;1.88;;
66421;SDS011;53228;51.380;0.098;2024-02-26T03:29:25;6.53;;;1.52;;
66421;SDS011;53228;51.380;0.098;2024-02-26T03:31:52;5.05;;;1.33;;
66421;SDS011;53228;51.380;0.098;2024-02-26T03:34:20;6.45;;;1.50;;
66421;SDS011;53228;51.380;0.098;2024-02-26T03:36:48;6.78;;;1.80;;
66421;SDS011;53228;51.380;0.098;2024-02-26T03:39:16;2.45;;;1.45;;
66421;SDS011;53228;51.380;0.098;2024-02-26T03:41:44;1.73;;;1.20;;
66421;SDS011;53228;51.380;0.098;2024-02-26T03:44:11;4.28;;;1.48;;
66421;SDS011;53228;51.380;0.098;2024-02-26T03:46:39;8.05;;;1.65;;
66421;SDS011;53228;51.380;0.098;2024-02-26T03:49:07;3.85;;;1.50;;
66421;SDS011;53228;51.380;0.098;2024-02-26T03:51:35;6.60;;;1.08;;
66421;SDS011;53228;51.380;0.098;2024-02-26T03:54:02;3.28;;;1.33;;
66421;SDS011;53228;51.380;0.098;2024-02-26T03:56:30;2.97;;;1.80;;
66421;SDS011;53228;51.380;0.098;2024-02-26T03:58:58;3.95;;;1.30;;
66421;SDS011;53228;51.380;0.098;2024-02-26T04:01:27;2.28;;;1.15;;
66421;SDS011;53228;51.380;0.098;2024-02-26T04:03:55;1.90;;;1.33;;
66421;SDS011;53228;51.380;0.098;2024-02-26T04:06:22;4.82;;;1.60;;
66421;SDS011;53228;51.380;0.098;2024-02-26T04:08:50;1.80;;;1.23;;
66421;SDS011;53228;51.380;0.098;2024-02-26T04:11:18;2.35;;;1.50;;
66421;SDS011;53228;51.380;0.098;2024-02-26T04:13:46;1.85;;;1.15;;
66421;SDS011;53228;51.380;0.098;2024-02-26T04:16:16;10.00;;;2.55;;
66421;SDS011;53228;51.380;0.098;2024-02-26T04:18:44;5.30;;;1.58;;
66421;SDS011;53228;51.380;0.098;2024-02-26T04:21:12;7.15;;;1.60;;
66421;SDS011;53228;51.380;0.098;2024-02-26T04:23:39;5.38;;;1.52;;
66421;SDS011;53228;51.380;0.098;2024-02-26T04:26:07;4.38;;;1.50;;
66421;SDS011;53228;51.380;0.098;2024-02-26T04:28:35;4.93;;;1.58;;
66421;SDS011;53228;51.380;0.098;2024-02-26T04:31:03;3.45;;;1.25;;
66421;SDS011;53228;51.380;0.098;2024-02-26T04:33:33;4.30;;;1.42;;
66421;SDS011;53228;51.380;0.098;2024-02-26T04:36:02;1.40;;;1.27;;
66421;SDS011;53228;51.380;0.098;2024-02-26T04:38:30;4.03;;;1.50;;
66421;SDS011;53228;51.380;0.098;2024-02-26T04:40:57;9.65;;;2.03;;
66421;SDS011;53228;51.380;0.098;2024-02-26T04:43:25;11.30;;;1.90;;
66421;SDS011;53228;51.380;0.098;2024-02-26T04:45:53;5.75;;;1.48;;
66421;SDS011;53228;51.380;0.098;2024-02-26T04:48:21;2.40;;;1.70;;
66421;SDS011;53228;51.380;0.098;2024-02-26T04:50:50;3.47;;;1.38;;
66421;SDS011;53228;51.380;0.098;2024-02-26T04:53:17;3.30;;;1.52;;
66421;SDS011;53228;51.380;0.098;2024-02-26T04:55:45;2.97;;;0.90;;
66421;SDS011;53228;51.380;0.098;2024-02-26T04:58:13;4.00;;;1.48;;
66421;SDS011;53228;51.380;0.098;2024-02-26T05:00:41;2.35;;;1.38;;
66421;SDS011;53228;51.380;0.098;2024-02-26T05:03:08;2.95;;;1.67;;
66421;SDS011;53228;51.380;0.098;2024-02-26T05:05:40;5.78;;;1.75;;
66421;SDS011;53228;51.380;0.098;2024-02-26T05:08:11;4.82;;;1.92;;
66421;SDS011;53228;51.380;0.098;2024-02-26T05:10:38;2.30;;;1.33;;
66421;SDS011;53228;51.380;0.098;2024-02-26T05:13:07;2.67;;;1.48;;
66421;SDS011;53228;51.380;0.098;2024-02-26T05:15:36;3.50;;;1.90;;
66421;SDS011;53228;51.380;0.098;2024-02-26T05:18:03;5.95;;;1.55;;
66421;SDS011;53228;51.380;0.098;2024-02-26T05:20:32;1.67;;;1.10;;
66421;SDS011;53228;51.380;0.098;2024-02-26T05:23:02;1.45;;;1.30;;
66421;SDS011;53228;51.380;0.098;2024-02-26T05:25:30;3.63;;;1.45;;
66421;SDS011;53228;51.380;0.098;2024-02-26T05:27:58;6.13;;;2.28;;
66421;SDS011;53228;51.380;0.098;2024-02-26T05:30:26;2.33;;;1.65;;
66421;SDS011;53228;51.380;0.098;2024-02-26T05:32:55;9.10;;;2.00;;
66421;SDS011;53228;51.380;0.098;2024-02-26T05:35:23;9.00;;;1.95;;
66421;SDS011;53228;51.380;0.098;2024-02-26T05:37:52;2.60;;;1.73;;
66421;SDS011;53228;51.380;0.098;2024-02-26T05:40:21;5.05;;;1.45;;
66421;SDS011;53228;51.380;0.098;2024-02-26T05:42:48;3.75;;;1.88;;
66421;SDS011;53228;51.380;0.098;2024-02-26T05:45:16;6.07;;;1.77;;
66421;SDS011;53228;51.380;0.098;2024-02-26T05:47:44;5.57;;;1.55;;
66421;SDS011;53228;51.380;0.098;2024-02-26T05:50:12;2.17;;;1.25;;
66421;SDS011;53228;51.380;0.098;2024-02-26T05:52:40;5.95;;;2.55;;
66421;SDS011;53228;51.380;0.098;2024-02-26T05:55:08;9.10;;;2.45;;
66421;SDS011;53228;51.380;0.098;2024-02-26T05:57:36;5.07;;;2.63;;
66421;SDS011;53228;51.380;0.098;2024-02-26T06:00:04;3.67;;;1.85;;
66421;SDS011;53228;51.380;0.098;2024-02-26T06:02:38;4.70;;;1.77;;
66421;SDS011;53228;51.380;0.098;2024-02-26T06:05:06;3.35;;;1.88;;
66421;SDS011;53228;51.380;0.098;2024-02-26T06:07:36;4.60;;;2.40;;
66421;SDS011;53228;51.380;0.098;2024-02-26T06:10:04;2.42;;;1.58;;
66421;SDS011;53228;51.380;0.098;2024-02-26T06:12:34;2.72;;;1.98;;
66421;SDS011;53228;51.380;0.098;2024-02-26T06:15:03;4.90;;;2.75;;
66421;SDS011;53228;51.380;0.098;2024-02-26T06:17:31;9.20;;;3.30;;
66421;SDS011;53228;51.380;0.098;2024-02-26T06:19:59;6.07;;;2.80;;
66421;SDS011;53228;51.380;0.098;2024-02-26T06:22:29;4.95;;;2.78;;
66421;SDS011;53228;51.380;0.098;2024-02-26T06:24:57;8.48;;;2.90;;
66421;SDS011;53228;51.380;0.098;2024-02-26T06:27:24;6.68;;;2.83;;
66421;SDS011;53228;51.380;0.098;2024-02-26T06:29:52;3.35;;;2.10;;
66421;SDS011;53228;51.380;0.098;2024-02-26T06:32:23;3.88;;;2.85;;
66421;SDS011;53228;51.380;0.098;2024-02-26T06:34:51;5.90;;;2.85;;
66421;SDS011;53228;51.380;0.098;2024-02-26T06:37:19;8.25;;;3.17;;
66421;SDS011;53228;51.380;0.098;2024-02-26T06:39:47;7.90;;;3.00;;
66421;SDS011;53228;51.380;0.098;2024-02-26T06:42:15;7.13;;;2.88;;
66421;SDS011;53228;51.380;0.098;2024-02-26T06:44:43;9.55;;;3.65;;
66421;SDS011;53228;51.380;0.098;2024-02-26T06:47:11;8.07;;;2.63;;
66421;SDS011;53228;51.380;0.098;2024-02-26T06:49:39;11.00;;;3.53;;
66421;SDS011;53228;51.380;0.098;2024-02-26T06:52:07;1.58;;;1.38;;
66421;SDS011;53228;51.380;0.098;2024-02-26T06:54:35;6.05;;;3.03;;
66421;SDS011;53228;51.380;0.098;2024-02-26T06:57:02;6.65;;;3.17;;
66421;SDS011;53228;51.380;0.098;2024-02-26T06:59:30;5.07;;;2.53;;
66421;SDS011;53228;51.380;0.098;2024-02-26T07:01:58;9.45;;;2.55;;
66421;SDS011;53228;51.380;0.098;2024-02-26T07:04:26;6.28;;;3.03;;
66421;SDS011;53228;51.380;0.098;2024-02-26T07:06:53;5.60;;;2.63;;
66421;SDS011;53228;51.380;0.098;2024-02-26T07:09:21;8.68;;;2.90;;
66421;SDS011;53228;51.380;0.098;2024-02-26T07:11:49;4.07;;;2.30;;
66421;SDS011;53228;51.380;0.098;2024-02-26T07:14:17;3.47;;;2.30;;
66421;SDS011;53228;51.380;0.098;2024-02-26T07:16:44;4.20;;;2.00;;
66421;SDS011;53228;51.380;0.098;2024-02-26T07:19:12;4.90;;;2.30;;
66421;SDS011;53228;51.380;0.098;2024-02-26T07:21:40;6.75;;;2.17;;
66421;SDS011;53228;51.380;0.098;2024-02-26T07:24:08;10.18;;;2.60;;
66421;SDS011;53228;51.380;0.098;2024-02-26T07:26:36;2.60;;;1.70;;
66421;SDS011;53228;51.380;0.098;2024-02-26T07:29:03;7.88;;;2.40;;
66421;SDS011;53228;51.380;0.098;2024-02-26T07:31:32;4.22;;;2.10;;
66421;SDS011;53228;51.380;0.098;2024-02-26T07:34:00;1.90;;;1.25;;
66421;SDS011;53228;51.380;0.098;2024-02-26T07:36:28;5.72;;;1.75;;
66421;SDS011;53228;51.380;0.098;2024-02-26T07:38:55;2.90;;;1.75;;
66421;SDS011;53228;51.380;0.098;2024-02-26T07:41:23;5.00;;;1.80;;
66421;SDS011;53228;51.380;0.098;2024-02-26T07:43:51;3.13;;;2.13;;
66421;SDS011;53228;51.380;0.098;2024-02-26T07:46:19;3.45;;;1.85;;
66421;SDS011;53228;51.380;0.098;2024-02-26T07:48:47;1.65;;;1.20;;
66421;SDS011;53228;51.380;0.098;2024-02-26T07:51:14;9.50;;;2.28;;
66421;SDS011;53228;51.380;0.098;2024-02-26T07:53:42;2.10;;;1.80;;
66421;SDS011;53228;51.380;0.098;2024-02-26T07:56:10;1.55;;;1.25;;
66421;SDS011;53228;51.380;0.098;2024-02-26T07:58:38;3.88;;;2.30;;
66421;SDS011;53228;51.380;0.098;2024-02-26T08:01:05;3.60;;;2.00;;
66421;SDS011;53228;51.380;0.098;2024-02-26T08:03:34;3.33;;;2.20;;
66421;SDS011;53228;51.380;0.098;2024-02-26T08:06:01;3.55;;;1.90;;
66421;SDS011;53228;51.380;0.098;2024-02-26T08:08:29;8.18;;;2.15;;
66421;SDS011;53228;51.380;0.098;2024-02-26T08:10:57;2.65;;;1.67;;
66421;SDS011;53228;51.380;0.098;2024-02-26T08:13:25;3.08;;;1.73;;
66421;SDS011;53228;51.380;0.098;2024-02-26T08:15:53;5.32;;;2.35;;
66421;SDS011;53228;51.380;0.098;2024-02-26T08:18:21;3.92;;;1.48;;
66421;SDS011;53228;51.380;0.098;2024-02-26T08:20:49;4.88;;;2.10;;
66421;SDS011;53228;51.380;0.098;2024-02-26T08:23:17;5.68;;;1.95;;
66421;SDS011;53228;51.380;0.098;2024-02-26T08:25:45;3.03;;;1.63;;
66421;SDS011;53228;51.380;0.098;2024-02-26T08:28:12;2.13;;;1.40;;
66421;SDS011;53228;51.380;0.098;2024-02-26T08:30:41;2.55;;;1.85;;
66421;SDS011;53228;51.380;0.098;2024-02-26T08:33:08;7.82;;;1.92;;
66421;SDS011;53228;51.380;0.098;2024-02-26T08:35:37;7.07;;;2.15;;
66421;SDS011;53228;51.380;0.098;2024-02-26T08:38:05;2.05;;;1.50;;
66421;SDS011;53228;51.380;0.098;2024-02-26T08:40:32;3.33;;;1.48;;
66421;SDS011;53228;51.380;0.098;2024-02-26T08:43:00;8.68;;;2.03;;
66421;SDS011;53228;51.380;0.098;2024-02-26T08:45:28;3.40;;;1.83;;
66421;SDS011;53228;51.380;0.098;2024-02-26T08:47:56;6.00;;;2.35;;
66421;SDS011;53228;51.380;0.098;2024-02-26T08:50:26;4.57;;;1.70;;
66421;SDS011;53228;51.380;0.098;2024-02-26T08:52:54;2.70;;;1.67;;
66421;SDS011;53228;51.380;0.098;2024-02-26T08:55:22;2.92;;;1.60;;
66421;SDS011;53228;51.380;0.098;2024-02-26T08:57:49;2.63;;;1.52;;
66421;SDS011;53228;51.380;0.098;2024-02-26T09:00:17;6.30;;;2.08;;
66421;SDS011;53228;51.380;0.098;2024-02-26T09:02:47;4.15;;;1.30;;
66421;SDS011;53228;51.380;0.098;2024-02-26T09:05:16;3.05;;;1.52;;
66421;SDS011;53228;51.380;0.098;2024-02-26T09:07:44;2.72;;;1.63;;
66421;SDS011;53228;51.380;0.098;2024-02-26T09:10:13;3.67;;;1.50;;
66421;SDS011;53228;51.380;0.098;2024-02-26T09:12:41;1.25;;;1.05;;
66421;SDS011;53228;51.380;0.098;2024-02-26T09:15:09;3.90;;;1.50;;
66421;SDS011;53228;51.380;0.098;2024-02-26T09:17:37;4.15;;;1.65;;
66421;SDS011;53228;51.380;0.098;2024-02-26T09:20:05;1.63;;;0.95;;
66421;SDS011;53228;51.380;0.098;2024-02-26T09:22:36;3.47;;;1.55;;
66421;SDS011;53228;51.380;0.098;2024-02-26T09:25:05;2.00;;;1.25;;
66421;SDS011;53228;51.380;0.098;2024-02-26T09:27:33;2.20;;;1.10;;
66421;SDS011;53228;51.380;0.098;2024-02-26T09:30:01;3.40;;;1.10;;
66421;SDS011;53228;51.380;0.098;2024-02-26T09:32:30;2.40;;;0.80;;
66421;SDS011;53228;51.380;0.098;2024-02-26T09:34:58;2.58;;;0.95;;
66421;SDS011;53228;51.380;0.098;2024-02-26T09:37:26;1.83;;;1.10;;
66421;SDS011;53228;51.380;0.098;2024-02-26T09:39:54;1.85;;;1.10;;
66421;SDS011;53228;51.380;0.098;2024-02-26T09:42:22;3.72;;;1.30;;
66421;SDS011;53228;51.380;0.098;2024-02-26T09:44:53;2.53;;;1.20;;
66421;SDS011;53228;51.380;0.098;2024-02-26T09:47:25;2.05;;;1.27;;
66421;SDS011;53228;51.380;0.098;2024-02-26T09:49:54;2.03;;;1.20;;
66421;SDS011;53228;51.380;0.098;2024-02-26T09:52:24;2.03;;;1.15;;
66421;SDS011;53228;51.380;0.098;2024-02-26T09:54:53;3.45;;;1.77;;
66421;SDS011;53228;51.380;0.098;2024-02-26T09:57:21;4.53;;;1.40;;
66421;SDS011;53228;51.380;0.098;2024-02-26T09:59:53;5.05;;;1.00;;
66421;SDS011;53228;51.380;0.098;2024-02-26T10:02:21;3.05;;;1.23;;
66421;SDS011;53228;51.380;0.098;2024-02-26T10:04:49;1.27;;;1.00;;
66421;SDS011;53228;51.380;0.098;2024-02-26T10:07:19;1.10;;;0.98;;
66421;SDS011;53228;51.380;0.098;2024-02-26T10:09:47;1.30;;;0.80;;
66421;SDS011;53228;51.380;0.098;2024-02-26T10:12:15;2.10;;;1.33;;
66421;SDS011;53228;51.380;0.098;2024-02-26T10:14:44;7.72;;;1.20;;
66421;SDS011;53228;51.380;0.098;2024-02-26T10:17:12;2.78;;;0.98;;
66421;SDS011;53228;51.380;0.098;2024-02-26T10:19:40;1.70;;;0.90;;
66421;SDS011;53228;51.380;0.098;2024-02-26T10:22:08;1.73;;;0.80;;
66421;SDS011;53228;51.380;0.098;2024-02-26T10:24:36;1.88;;;0.75;;
66421;SDS011;53228;51.380;0.098;2024-02-26T10:27:04;2.38;;;0.73;;
66421;SDS011;53228;51.380;0.098;2024-02-26T10:29:32;2.28;;;0.80;;
66421;SDS011;53228;51.380;0.098;2024-02-26T10:32:01;1.50;;;0.70;;
66421;SDS011;53228;51.380;0.098;2024-02-26T10:34:29;3.15;;;0.57;;
66421;SDS011;53228;51.380;0.098;2024-02-26T10:36:57;1.15;;;0.60;;
66421;SDS011;53228;51.380;0.098;2024-02-26T10:39:25;0.75;;;0.30;;
66421;SDS011;53228;51.380;0.098;2024-02-26T10:41:53;0.52;;;0.50;;
66421;SDS011;53228;51.380;0.098;2024-02-26T10:44:21;1.60;;;1.00;;
66421;SDS011;53228;51.380;0.098;2024-02-26T10:46:49;0.65;;;0.50;;
66421;SDS011;53228;51.380;0.098;2024-02-26T10:49:18;5.93;;;2.50;;
66421;SDS011;53228;51.380;0.098;2024-02-26T10:54:16;0.93;;;0.50;;
66421;SDS011;53228;51.380;0.098;2024-02-26T10:56:44;3.50;;;0.50;;
66421;SDS011;53228;51.380;0.098;2024-02-26T10:59:13;1.20;;;0.50;;
66421;SDS011;53228;51.380;0.098;2024-02-26T11:01:41;3.95;;;0.50;;
66421;SDS011;53228;51.380;0.098;2024-02-26T11:04:13;1.67;;;0.60;;
66421;SDS011;53228;51.380;0.098;2024-02-26T11:06:43;3.55;;;0.63;;
66421;SDS011;53228;51.380;0.098;2024-02-26T11:09:12;2.65;;;0.70;;
66421;SDS011;53228;51.380;0.098;2024-02-26T11:11:40;3.20;;;0.93;;
66421;SDS011;53228;51.380;0.098;2024-02-26T11:14:09;1.77;;;0.90;;
66421;SDS011;53228;51.380;0.098;2024-02-26T11:16:37;1.80;;;0.60;;
66421;SDS011;53228;51.380;0.098;2024-02-26T11:19:08;1.25;;;0.63;;
66421;SDS011;53228;51.380;0.098;2024-02-26T11:21:38;1.23;;;0.70;;
66421;SDS011;53228;51.380;0.098;2024-02-26T11:24:08;3.53;;;0.70;;
66421;SDS011;53228;51.380;0.098;2024-02-26T11:26:38;0.70;;;0.57;;
66421;SDS011;53228;51.380;0.098;2024-02-26T11:29:09;4.55;;;0.90;;
66421;SDS011;53228;51.380;0.098;2024-02-26T11:31:38;2.42;;;1.35;;
66421;SDS011;53228;51.380;0.098;2024-02-26T11:34:07;5.38;;;1.02;;
66421;SDS011;53228;51.380;0.098;2024-02-26T11:36:35;2.10;;;1.10;;
66421;SDS011;53228;51.380;0.098;2024-02-26T11:39:04;4.13;;;1.20;;
66421;SDS011;53228;51.380;0.098;2024-02-26T11:41:32;5.35;;;1.08;;
66421;SDS011;53228;51.380;0.098;2024-02-26T11:44:01;6.20;;;1.73;;
66421;SDS011;53228;51.380;0.098;2024-02-26T11:46:33;1.23;;;0.60;;
66421;SDS011;53228;51.380;0.098;2024-02-26T11:51:56;5.68;;;0.82;;
66421;SDS011;53228;51.380;0.098;2024-02-26T11:54:43;3.78;;;1.27;;
66421;SDS011;53228;51.380;0.098;2024-02-26T11:57:27;1.33;;;0.52;;
66421;SDS011;53228;51.380;0.098;2024-02-26T11:59:57;1.88;;;0.90;;
66421;SDS011;53228;51.380;0.098;2024-02-26T12:05:10;4.18;;;0.77;;
66421;SDS011;53228;51.380;0.098;2024-02-26T12:07:47;1.60;;;0.80;;
66421;SDS011;53228;51.380;0.098;2024-02-26T12:10:26;4.18;;;0.82;;
66421;SDS011;53228;51.380;0.098;2024-02-26T12:13:10;6.00;;;1.08;;
66421;SDS011;53228;51.380;0.098;2024-02-26T12:15:54;3.95;;;1.15;;
66421;SDS011;53228;51.380;0.098;2024-02-26T12:18:24;3.83;;;0.90;;
66421;SDS011;53228;51.380;0.098;2024-02-26T12:21:01;2.10;;;0.40;;
66421;SDS011;53228;51.380;0.098;2024-02-26T12:23:31;1.85;;;1.02;;
66421;SDS011;53228;51.380;0.098;2024-02-26T12:25:59;5.78;;;0.90;;
66421;SDS011;53228;51.380;0.098;2024-02-26T12:28:31;0.90;;;0.60;;
66421;SDS011;53228;51.380;0.098;2024-02-26T12:30:59;1.40;;;0.50;;
66421;SDS011;53228;51.380;0.098;2024-02-26T12:33:27;6.45;;;1.10;;
66421;SDS011;53228;51.380;0.098;2024-02-26T12:35:56;1.65;;;0.32;;
66421;SDS011;53228;51.380;0.098;2024-02-26T12:38:26;1.75;;;0.38;;
66421;SDS011;53228;51.380;0.098;2024-02-26T12:40:54;1.23;;;0.30;;
66421;SDS011;53228;51.380;0.098;2024-02-26T12:43:22;3.13;;;0.85;;
66421;SDS011;53228;51.380;0.098;2024-02-26T12:45:53;1.67;;;0.30;;
66421;SDS011;53228;51.380;0.098;2024-02-26T12:48:23;1.95;;;0.80;;
66421;SDS011;53228;51.380;0.098;2024-02-26T12:50:52;0.15;;;0.10;;
66421;SDS011;53228;51.380;0.098;2024-02-26T12:53:21;3.50;;;0.50;;
66421;SDS011;53228;51.380;0.098;2024-02-26T12:55:49;4.18;;;1.48;;
66421;SDS011;53228;51.380;0.098;2024-02-26T12:58:17;1.17;;;0.80;;
66421;SDS011;53228;51.380;0.098;2024-02-26T13:00:47;4.20;;;1.20;;
66421;SDS011;53228;51.380;0.098;2024-02-26T13:03:16;2.00;;;1.10;;
66421;SDS011;53228;51.380;0.098;2024-02-26T13:05:44;2.60;;;0.90;;
66421;SDS011;53228;51.380;0.098;2024-02-26T13:08:19;2.20;;;0.50;;
66421;SDS011;53228;51.380;0.098;2024-02-26T13:10:47;1.73;;;0.20;;
66421;SDS011;53228;51.380;0.098;2024-02-26T13:13:17;1.35;;;0.30;;
66421;SDS011;53228;51.380;0.098;2024-02-26T13:15:46;2.22;;;0.47;;
66421;SDS011;53228;51.380;0.098;2024-02-26T13:18:14;2.00;;;0.60;;
66421;SDS011;53228;51.380;0.098;2024-02-26T13:20:42;1.15;;;0.40;;
66421;SDS011;53228;51.380;0.098;2024-02-26T13:23:13;0.85;;;0.40;;
66421;SDS011;53228;51.380;0.098;2024-02-26T13:25:41;1.85;;;0.30;;
66421;SDS011;53228;51.380;0.098;2024-02-26T13:30:56;0.65;;;0.45;;
66421;SDS011;53228;51.380;0.098;2024-02-26T13:33:25;1.85;;;0.30;;
66421;SDS011;53228;51.380;0.098;2024-02-26T13:35:57;2.28;;;0.35;;
66421;SDS011;53228;51.380;0.098;2024-02-26T13:38:26;2.30;;;0.50;;
66421;SDS011;53228;51.380;0.098;2024-02-26T13:40:55;0.40;;;0.22;;
66421;SDS011;53228;51.380;0.098;2024-02-26T13:43:23;0.90;;;0.25;;
66421;SDS011;53228;51.380;0.098;2024-02-26T13:45:51;2.25;;;0.32;;
66421;SDS011;53228;51.380;0.098;2024-02-26T13:48:19;0.63;;;0.40;;
66421;SDS011;53228;51.380;0.098;2024-02-26T13:50:46;1.67;;;0.70;;
66421;SDS011;53228;51.380;0.098;2024-02-26T13:53:14;1.45;;;0.55;;
66421;SDS011;53228;51.380;0.098;2024-02-26T13:55:42;0.50;;;0.30;;
66421;SDS011;53228;51.380;0.098;2024-02-26T13:58:11;0.75;;;0.25;;
66421;SDS011;53228;51.380;0.098;2024-02-26T14:00:41;0.57;;;0.30;;
66421;SDS011;53228;51.380;0.098;2024-02-26T14:03:10;0.45;;;0.32;;
66421;SDS011;53228;51.380;0.098;2024-02-26T14:05:38;2.70;;;0.73;;
66421;SDS011;53228;51.380;0.098;2024-02-26T14:08:06;1.08;;;0.55;;
66421;SDS011;53228;51.380;0.098;2024-02-26T14:10:34;2.50;;;0.90;;
66421;SDS011;53228;51.380;0.098;2024-02-26T14:13:03;1.50;;;0.60;;
66421;SDS011;53228;51.380;0.098;2024-02-26T14:15:32;0.50;;;0.20;;
66421;SDS011;53228;51.380;0.098;2024-02-26T14:18:02;1.30;;;0.38;;
66421;SDS011;53228;51.380;0.098;2024-02-26T14:20:31;0.90;;;0.57;;
66421;SDS011;53228;51.380;0.098;2024-02-26T14:22:59;0.63;;;0.50;;
66421;SDS011;53228;51.380;0.098;2024-02-26T14:25:27;1.63;;;0.60;;
66421;SDS011;53228;51.380;0.098;2024-02-26T14:27:57;2.42;;;0.75;;
66421;SDS011;53228;51.380;0.098;2024-02-26T14:30:26;2.78;;;0.80;;
66421;SDS011;53228;51.380;0.098;2024-02-26T14:32:54;0.50;;;0.28;;
66421;SDS011;53228;51.380;0.098;2024-02-26T14:35:22;1.55;;;0.80;;
66421;SDS011;53228;51.380;0.098;2024-02-26T14:37:50;1.00;;;0.88;;
66421;SDS011;53228;51.380;0.098;2024-02-26T14:40:19;1.50;;;0.98;;
66421;SDS011;53228;51.380;0.098;2024-02-26T14:42:47;1.08;;;0.65;;
66421;SDS011;53228;51.380;0.098;2024-02-26T14:45:15;1.23;;;0.60;;
66421;SDS011;53228;51.380;0.098;2024-02-26T14:47:43;2.05;;;0.35;;
66421;SDS011;53228;51.380;0.098;2024-02-26T14:50:11;0.40;;;0.20;;
66421;SDS011;53228;51.380;0.098;2024-02-26T14:52:39;0.30;;;0.30;;
66421;SDS011;53228;51.380;0.098;2024-02-26T14:55:07;2.00;;;0.55;;
66421;SDS011;53228;51.380;0.098;2024-02-26T14:57:35;2.92;;;0.30;;
66421;SDS011;53228;51.380;0.098;2024-02-26T15:00:03;0.40;;;0.40;;
66421;SDS011;53228;51.380;0.098;2024-02-26T15:02:32;0.63;;;0.60;;
66421;SDS011;53228;51.380;0.098;2024-02-26T15:05:00;0.32;;;0.32;;
66421;SDS011;53228;51.380;0.098;2024-02-26T15:07:28;1.40;;;0.55;;